sensor_id;sensor_type;location;lat;lon;timestamp;P1;durP1;ratioP1;P2;durP2;ratioP2
57341;SDS011;43175;51.002;18.316;2023-08-01T00:01:46;10.80;;;3.40;;
57341;SDS011;43175;51.002;18.316;2023-08-01T00:04:11;10.60;;;3.70;;
57341;SDS011;43175;51.002;18.316;2023-08-01T00:06:37;12.10;;;3.80;;
57341;SDS011;43175;51.002;18.316;2023-08-01T00:09:03;11.00;;;3.50;;
57341;SDS011;43175;51.002;18.316;2023-08-01T00:11:28;10.40;;;3.80;;
57341;SDS011;43175;51.002;18.316;2023-08-01T00:13:54;13.40;;;3.80;;
57341;SDS011;43175;51.002;18.316;2023-08-01T00:16:19;11.10;;;3.50;;
57341;SDS011;43175;51.002;18.316;2023-08-01T00:18:45;10.70;;;3.70;;
57341;SDS011;43175;51.002;18.316;2023-08-01T00:21:10;10.90;;;3.80;;
57341;SDS011;43175;51.002;18.316;2023-08-01T00:23:36;11.50;;;3.70;;
57341;SDS011;43175;51.002;18.316;2023-08-01T00:26:03;9.20;;;3.50;;
57341;SDS011;43175;51.002;18.316;2023-08-01T00:28:29;13.60;;;3.90;;
57341;SDS011;43175;51.002;18.316;2023-08-01T00:31:06;13.70;;;3.60;;
57341;SDS011;43175;51.002;18.316;2023-08-01T00:33:34;10.60;;;3.60;;
57341;SDS011;43175;51.002;18.316;2023-08-01T00:36:00;10.70;;;3.90;;
57341;SDS011;43175;51.002;18.316;2023-08-01T00:38:26;9.90;;;3.70;;
57341;SDS011;43175;51.002;18.316;2023-08-01T00:40:53;11.80;;;3.80;;
57341;SDS011;43175;51.002;18.316;2023-08-01T00:43:18;10.80;;;3.60;;
57341;SDS011;43175;51.002;18.316;2023-08-01T00:45:45;10.10;;;3.80;;
57341;SDS011;43175;51.002;18.316;2023-08-01T00:48:11;11.90;;;4.00;;
57341;SDS011;43175;51.002;18.316;2023-08-01T00:50:37;10.10;;;3.80;;
57341;SDS011;43175;51.002;18.316;2023-08-01T00:53:03;10.90;;;3.50;;
57341;SDS011;43175;51.002;18.316;2023-08-01T00:55:29;9.90;;;3.60;;
57341;SDS011;43175;51.002;18.316;2023-08-01T00:57:56;13.20;;;3.80;;
57341;SDS011;43175;51.002;18.316;2023-08-01T01:00:21;13.50;;;3.90;;
57341;SDS011;43175;51.002;18.316;2023-08-01T01:02:47;12.60;;;3.70;;
57341;SDS011;43175;51.002;18.316;2023-08-01T01:05:12;9.90;;;3.50;;
57341;SDS011;43175;51.002;18.316;2023-08-01T01:07:39;10.80;;;3.80;;
57341;SDS011;43175;51.002;18.316;2023-08-01T01:10:04;12.10;;;3.80;;
57341;SDS011;43175;51.002;18.316;2023-08-01T01:12:30;11.90;;;3.90;;
57341;SDS011;43175;51.002;18.316;2023-08-01T01:14:56;10.50;;;3.70;;
57341;SDS011;43175;51.002;18.316;2023-08-01T01:17:21;11.70;;;3.70;;
57341;SDS011;43175;51.002;18.316;2023-08-01T01:19:48;12.50;;;3.50;;
57341;SDS011;43175;51.002;18.316;2023-08-01T01:22:13;12.40;;;3.60;;
57341;SDS011;43175;51.002;18.316;2023-08-01T01:24:39;11.90;;;3.70;;
57341;SDS011;43175;51.002;18.316;2023-08-01T01:27:06;11.10;;;3.80;;
57341;SDS011;43175;51.002;18.316;2023-08-01T01:29:32;11.30;;;3.50;;
57341;SDS011;43175;51.002;18.316;2023-08-01T01:31:59;12.50;;;4.10;;
57341;SDS011;43175;51.002;18.316;2023-08-01T01:34:25;13.10;;;3.70;;
57341;SDS011;43175;51.002;18.316;2023-08-01T01:36:52;11.00;;;3.50;;
57341;SDS011;43175;51.002;18.316;2023-08-01T01:39:17;10.40;;;3.50;;
57341;SDS011;43175;51.002;18.316;2023-08-01T01:41:43;11.00;;;3.60;;
57341;SDS011;43175;51.002;18.316;2023-08-01T01:44:09;12.10;;;3.80;;
57341;SDS011;43175;51.002;18.316;2023-08-01T01:46:34;12.60;;;3.30;;
57341;SDS011;43175;51.002;18.316;2023-08-01T01:49:00;12.00;;;3.90;;
57341;SDS011;43175;51.002;18.316;2023-08-01T01:51:26;11.20;;;3.50;;
57341;SDS011;43175;51.002;18.316;2023-08-01T01:53:52;11.10;;;3.50;;
57341;SDS011;43175;51.002;18.316;2023-08-01T01:56:18;12.10;;;3.90;;
57341;SDS011;43175;51.002;18.316;2023-08-01T01:58:43;9.90;;;3.90;;
57341;SDS011;43175;51.002;18.316;2023-08-01T02:01:09;10.80;;;3.70;;
57341;SDS011;43175;51.002;18.316;2023-08-01T02:03:34;13.10;;;3.70;;
57341;SDS011;43175;51.002;18.316;2023-08-01T02:06:01;10.20;;;3.70;;
57341;SDS011;43175;51.002;18.316;2023-08-01T02:08:29;12.40;;;3.70;;
57341;SDS011;43175;51.002;18.316;2023-08-01T02:10:55;11.60;;;3.60;;
57341;SDS011;43175;51.002;18.316;2023-08-01T02:13:23;10.20;;;3.30;;
57341;SDS011;43175;51.002;18.316;2023-08-01T02:15:53;10.90;;;3.50;;
57341;SDS011;43175;51.002;18.316;2023-08-01T02:18:19;9.60;;;3.40;;
57341;SDS011;43175;51.002;18.316;2023-08-01T02:20:45;9.50;;;3.40;;
57341;SDS011;43175;51.002;18.316;2023-08-01T02:23:10;11.10;;;3.80;;
57341;SDS011;43175;51.002;18.316;2023-08-01T02:25:39;11.40;;;3.80;;
57341;SDS011;43175;51.002;18.316;2023-08-01T02:28:05;12.50;;;3.80;;
57341;SDS011;43175;51.002;18.316;2023-08-01T02:30:32;10.40;;;3.50;;
57341;SDS011;43175;51.002;18.316;2023-08-01T02:32:58;9.70;;;3.60;;
57341;SDS011;43175;51.002;18.316;2023-08-01T02:35:23;12.50;;;3.90;;
57341;SDS011;43175;51.002;18.316;2023-08-01T02:37:49;11.80;;;3.60;;
57341;SDS011;43175;51.002;18.316;2023-08-01T02:40:14;11.90;;;3.70;;
57341;SDS011;43175;51.002;18.316;2023-08-01T02:42:40;9.60;;;3.50;;
57341;SDS011;43175;51.002;18.316;2023-08-01T02:45:06;10.90;;;3.70;;
57341;SDS011;43175;51.002;18.316;2023-08-01T02:47:32;11.20;;;3.80;;
57341;SDS011;43175;51.002;18.316;2023-08-01T02:49:58;11.20;;;3.50;;
57341;SDS011;43175;51.002;18.316;2023-08-01T02:52:24;11.20;;;3.50;;
57341;SDS011;43175;51.002;18.316;2023-08-01T02:54:49;12.00;;;4.00;;
57341;SDS011;43175;51.002;18.316;2023-08-01T02:57:15;14.70;;;3.40;;
57341;SDS011;43175;51.002;18.316;2023-08-01T02:59:40;10.10;;;3.50;;
57341;SDS011;43175;51.002;18.316;2023-08-01T03:02:06;12.40;;;3.90;;
57341;SDS011;43175;51.002;18.316;2023-08-01T03:04:32;10.20;;;3.60;;
57341;SDS011;43175;51.002;18.316;2023-08-01T03:06:57;13.40;;;3.50;;
57341;SDS011;43175;51.002;18.316;2023-08-01T03:09:23;10.40;;;3.30;;
57341;SDS011;43175;51.002;18.316;2023-08-01T03:14:51;10.20;;;3.50;;
57341;SDS011;43175;51.002;18.316;2023-08-01T03:17:17;10.10;;;3.50;;
57341;SDS011;43175;51.002;18.316;2023-08-01T03:19:43;9.90;;;3.50;;
57341;SDS011;43175;51.002;18.316;2023-08-01T03:22:09;11.40;;;3.50;;
57341;SDS011;43175;51.002;18.316;2023-08-01T03:24:35;9.60;;;3.30;;
57341;SDS011;43175;51.002;18.316;2023-08-01T03:27:01;10.30;;;3.80;;
57341;SDS011;43175;51.002;18.316;2023-08-01T03:29:26;11.10;;;3.70;;
57341;SDS011;43175;51.002;18.316;2023-08-01T03:31:52;10.00;;;3.80;;
57341;SDS011;43175;51.002;18.316;2023-08-01T03:34:18;11.20;;;3.80;;
57341;SDS011;43175;51.002;18.316;2023-08-01T03:36:43;12.20;;;4.00;;
57341;SDS011;43175;51.002;18.316;2023-08-01T03:39:09;11.30;;;3.80;;
57341;SDS011;43175;51.002;18.316;2023-08-01T03:41:35;10.30;;;3.40;;
57341;SDS011;43175;51.002;18.316;2023-08-01T03:44:02;11.90;;;3.80;;
57341;SDS011;43175;51.002;18.316;2023-08-01T03:46:28;10.00;;;3.70;;
57341;SDS011;43175;51.002;18.316;2023-08-01T03:48:54;11.00;;;3.70;;
57341;SDS011;43175;51.002;18.316;2023-08-01T03:51:19;12.30;;;3.50;;
57341;SDS011;43175;51.002;18.316;2023-08-01T03:53:46;11.30;;;3.80;;
57341;SDS011;43175;51.002;18.316;2023-08-01T03:56:12;10.90;;;3.90;;
57341;SDS011;43175;51.002;18.316;2023-08-01T03:58:37;9.90;;;3.90;;
57341;SDS011;43175;51.002;18.316;2023-08-01T04:01:03;10.40;;;3.90;;
57341;SDS011;43175;51.002;18.316;2023-08-01T04:03:29;9.80;;;3.50;;
57341;SDS011;43175;51.002;18.316;2023-08-01T04:05:54;14.10;;;3.60;;
57341;SDS011;43175;51.002;18.316;2023-08-01T04:08:20;12.00;;;3.60;;
57341;SDS011;43175;51.002;18.316;2023-08-01T04:10:45;10.50;;;3.60;;
57341;SDS011;43175;51.002;18.316;2023-08-01T04:13:11;10.60;;;3.50;;
57341;SDS011;43175;51.002;18.316;2023-08-01T04:15:36;11.50;;;3.70;;
57341;SDS011;43175;51.002;18.316;2023-08-01T04:18:02;10.20;;;3.50;;
57341;SDS011;43175;51.002;18.316;2023-08-01T04:20:28;11.10;;;3.40;;
57341;SDS011;43175;51.002;18.316;2023-08-01T04:22:53;11.50;;;3.90;;
57341;SDS011;43175;51.002;18.316;2023-08-01T04:25:20;11.40;;;4.40;;
57341;SDS011;43175;51.002;18.316;2023-08-01T04:27:46;10.70;;;3.60;;
57341;SDS011;43175;51.002;18.316;2023-08-01T04:30:12;10.40;;;3.80;;
57341;SDS011;43175;51.002;18.316;2023-08-01T04:32:37;12.00;;;3.80;;
57341;SDS011;43175;51.002;18.316;2023-08-01T04:35:03;10.40;;;3.50;;
57341;SDS011;43175;51.002;18.316;2023-08-01T04:37:29;10.10;;;3.70;;
57341;SDS011;43175;51.002;18.316;2023-08-01T04:39:54;13.70;;;3.90;;
57341;SDS011;43175;51.002;18.316;2023-08-01T04:42:20;13.00;;;3.90;;
57341;SDS011;43175;51.002;18.316;2023-08-01T04:44:45;10.40;;;3.50;;
57341;SDS011;43175;51.002;18.316;2023-08-01T04:47:14;10.50;;;3.40;;
57341;SDS011;43175;51.002;18.316;2023-08-01T04:49:40;11.20;;;3.50;;
57341;SDS011;43175;51.002;18.316;2023-08-01T04:52:05;9.00;;;3.40;;
57341;SDS011;43175;51.002;18.316;2023-08-01T04:54:31;10.10;;;3.10;;
57341;SDS011;43175;51.002;18.316;2023-08-01T04:56:57;10.60;;;3.50;;
57341;SDS011;43175;51.002;18.316;2023-08-01T04:59:22;9.70;;;3.20;;
57341;SDS011;43175;51.002;18.316;2023-08-01T05:01:48;8.20;;;2.90;;
57341;SDS011;43175;51.002;18.316;2023-08-01T05:04:13;10.30;;;3.60;;
57341;SDS011;43175;51.002;18.316;2023-08-01T05:06:39;8.40;;;3.10;;
57341;SDS011;43175;51.002;18.316;2023-08-01T05:09:05;11.50;;;3.60;;
57341;SDS011;43175;51.002;18.316;2023-08-01T05:11:32;9.90;;;3.40;;
57341;SDS011;43175;51.002;18.316;2023-08-01T05:13:58;10.70;;;3.40;;
57341;SDS011;43175;51.002;18.316;2023-08-01T05:16:23;10.70;;;3.40;;
57341;SDS011;43175;51.002;18.316;2023-08-01T05:18:49;9.90;;;3.40;;
57341;SDS011;43175;51.002;18.316;2023-08-01T05:21:14;8.90;;;3.30;;
57341;SDS011;43175;51.002;18.316;2023-08-01T05:23:40;11.10;;;3.40;;
57341;SDS011;43175;51.002;18.316;2023-08-01T05:26:05;10.00;;;3.30;;
57341;SDS011;43175;51.002;18.316;2023-08-01T05:28:31;9.60;;;3.00;;
57341;SDS011;43175;51.002;18.316;2023-08-01T05:30:57;9.80;;;3.20;;
57341;SDS011;43175;51.002;18.316;2023-08-01T05:33:22;9.60;;;3.60;;
57341;SDS011;43175;51.002;18.316;2023-08-01T05:35:50;11.00;;;3.20;;
57341;SDS011;43175;51.002;18.316;2023-08-01T05:38:16;9.30;;;3.40;;
57341;SDS011;43175;51.002;18.316;2023-08-01T05:40:41;9.40;;;3.10;;
57341;SDS011;43175;51.002;18.316;2023-08-01T05:43:07;10.60;;;3.20;;
57341;SDS011;43175;51.002;18.316;2023-08-01T05:45:36;8.80;;;3.10;;
57341;SDS011;43175;51.002;18.316;2023-08-01T05:48:02;8.80;;;2.90;;
57341;SDS011;43175;51.002;18.316;2023-08-01T05:50:27;10.20;;;3.10;;
57341;SDS011;43175;51.002;18.316;2023-08-01T05:52:53;10.30;;;3.30;;
57341;SDS011;43175;51.002;18.316;2023-08-01T05:55:19;10.20;;;3.20;;
57341;SDS011;43175;51.002;18.316;2023-08-01T05:57:45;10.80;;;3.20;;
57341;SDS011;43175;51.002;18.316;2023-08-01T06:00:10;9.80;;;3.20;;
57341;SDS011;43175;51.002;18.316;2023-08-01T06:02:37;9.80;;;3.30;;
57341;SDS011;43175;51.002;18.316;2023-08-01T06:05:03;10.40;;;3.10;;
57341;SDS011;43175;51.002;18.316;2023-08-01T06:07:29;10.10;;;3.40;;
57341;SDS011;43175;51.002;18.316;2023-08-01T06:09:54;11.00;;;3.30;;
57341;SDS011;43175;51.002;18.316;2023-08-01T06:12:20;11.30;;;3.50;;
57341;SDS011;43175;51.002;18.316;2023-08-01T06:14:46;9.60;;;3.40;;
57341;SDS011;43175;51.002;18.316;2023-08-01T06:17:13;10.90;;;3.30;;
57341;SDS011;43175;51.002;18.316;2023-08-01T06:19:38;10.30;;;3.10;;
57341;SDS011;43175;51.002;18.316;2023-08-01T06:22:04;10.10;;;3.30;;
57341;SDS011;43175;51.002;18.316;2023-08-01T06:24:31;10.90;;;3.30;;
57341;SDS011;43175;51.002;18.316;2023-08-01T06:26:56;9.90;;;3.10;;
57341;SDS011;43175;51.002;18.316;2023-08-01T06:29:21;10.80;;;3.50;;
57341;SDS011;43175;51.002;18.316;2023-08-01T06:31:47;9.70;;;3.40;;
57341;SDS011;43175;51.002;18.316;2023-08-01T06:34:12;9.80;;;3.20;;
57341;SDS011;43175;51.002;18.316;2023-08-01T06:36:38;13.50;;;3.90;;
57341;SDS011;43175;51.002;18.316;2023-08-01T06:39:03;8.80;;;3.30;;
57341;SDS011;43175;51.002;18.316;2023-08-01T06:41:29;10.70;;;3.40;;
57341;SDS011;43175;51.002;18.316;2023-08-01T06:43:54;10.10;;;3.20;;
57341;SDS011;43175;51.002;18.316;2023-08-01T06:46:20;9.40;;;3.30;;
57341;SDS011;43175;51.002;18.316;2023-08-01T06:48:45;10.30;;;3.30;;
57341;SDS011;43175;51.002;18.316;2023-08-01T06:51:11;11.10;;;3.70;;
57341;SDS011;43175;51.002;18.316;2023-08-01T06:53:36;8.70;;;3.30;;
57341;SDS011;43175;51.002;18.316;2023-08-01T06:56:02;11.00;;;3.40;;
57341;SDS011;43175;51.002;18.316;2023-08-01T06:58:27;11.10;;;3.50;;
57341;SDS011;43175;51.002;18.316;2023-08-01T07:00:53;9.80;;;3.50;;
57341;SDS011;43175;51.002;18.316;2023-08-01T07:03:18;9.60;;;3.20;;
57341;SDS011;43175;51.002;18.316;2023-08-01T07:05:44;9.60;;;3.50;;
57341;SDS011;43175;51.002;18.316;2023-08-01T07:08:09;10.00;;;3.60;;
57341;SDS011;43175;51.002;18.316;2023-08-01T07:10:35;10.10;;;3.50;;
57341;SDS011;43175;51.002;18.316;2023-08-01T07:13:01;10.70;;;3.50;;
57341;SDS011;43175;51.002;18.316;2023-08-01T07:15:32;10.20;;;3.50;;
57341;SDS011;43175;51.002;18.316;2023-08-01T07:17:58;10.90;;;3.30;;
57341;SDS011;43175;51.002;18.316;2023-08-01T07:20:24;10.80;;;3.50;;
57341;SDS011;43175;51.002;18.316;2023-08-01T07:22:50;11.30;;;3.90;;
57341;SDS011;43175;51.002;18.316;2023-08-01T07:25:15;11.10;;;3.80;;
57341;SDS011;43175;51.002;18.316;2023-08-01T07:27:42;10.30;;;4.00;;
57341;SDS011;43175;51.002;18.316;2023-08-01T07:30:09;10.70;;;3.80;;
57341;SDS011;43175;51.002;18.316;2023-08-01T07:32:37;12.00;;;4.10;;
57341;SDS011;43175;51.002;18.316;2023-08-01T07:35:04;10.80;;;4.10;;
57341;SDS011;43175;51.002;18.316;2023-08-01T07:37:33;11.40;;;4.00;;
57341;SDS011;43175;51.002;18.316;2023-08-01T07:39:59;11.50;;;4.20;;
57341;SDS011;43175;51.002;18.316;2023-08-01T07:42:24;12.00;;;4.10;;
57341;SDS011;43175;51.002;18.316;2023-08-01T07:44:50;11.70;;;4.20;;
57341;SDS011;43175;51.002;18.316;2023-08-01T07:47:15;11.20;;;4.30;;
57341;SDS011;43175;51.002;18.316;2023-08-01T07:49:41;10.70;;;4.00;;
57341;SDS011;43175;51.002;18.316;2023-08-01T07:52:09;10.70;;;4.30;;
57341;SDS011;43175;51.002;18.316;2023-08-01T07:54:35;10.20;;;4.00;;
57341;SDS011;43175;51.002;18.316;2023-08-01T07:57:00;12.00;;;4.30;;
57341;SDS011;43175;51.002;18.316;2023-08-01T07:59:26;9.90;;;4.00;;
57341;SDS011;43175;51.002;18.316;2023-08-01T08:01:52;10.10;;;3.90;;
57341;SDS011;43175;51.002;18.316;2023-08-01T08:04:18;10.30;;;4.40;;
57341;SDS011;43175;51.002;18.316;2023-08-01T08:06:44;11.80;;;4.10;;
57341;SDS011;43175;51.002;18.316;2023-08-01T08:09:12;12.10;;;4.20;;
57341;SDS011;43175;51.002;18.316;2023-08-01T08:11:38;11.70;;;5.10;;
57341;SDS011;43175;51.002;18.316;2023-08-01T08:14:04;10.00;;;4.10;;
57341;SDS011;43175;51.002;18.316;2023-08-01T08:16:29;11.20;;;4.60;;
57341;SDS011;43175;51.002;18.316;2023-08-01T08:18:55;9.70;;;3.90;;
57341;SDS011;43175;51.002;18.316;2023-08-01T08:21:21;11.50;;;4.40;;
57341;SDS011;43175;51.002;18.316;2023-08-01T08:23:46;13.30;;;4.60;;
57341;SDS011;43175;51.002;18.316;2023-08-01T08:26:12;11.70;;;4.60;;
57341;SDS011;43175;51.002;18.316;2023-08-01T08:28:37;13.20;;;4.80;;
57341;SDS011;43175;51.002;18.316;2023-08-01T08:31:05;11.10;;;4.30;;
57341;SDS011;43175;51.002;18.316;2023-08-01T08:33:30;12.50;;;4.20;;
57341;SDS011;43175;51.002;18.316;2023-08-01T08:35:56;13.90;;;4.30;;
57341;SDS011;43175;51.002;18.316;2023-08-01T08:38:21;13.10;;;4.90;;
57341;SDS011;43175;51.002;18.316;2023-08-01T08:40:50;10.10;;;4.00;;
57341;SDS011;43175;51.002;18.316;2023-08-01T08:43:23;11.70;;;4.40;;
57341;SDS011;43175;51.002;18.316;2023-08-01T08:45:49;10.70;;;4.40;;
57341;SDS011;43175;51.002;18.316;2023-08-01T08:48:18;13.40;;;4.30;;
57341;SDS011;43175;51.002;18.316;2023-08-01T08:50:46;12.30;;;4.20;;
57341;SDS011;43175;51.002;18.316;2023-08-01T08:53:12;10.20;;;4.00;;
57341;SDS011;43175;51.002;18.316;2023-08-01T08:55:41;11.90;;;4.00;;
57341;SDS011;43175;51.002;18.316;2023-08-01T08:58:07;11.20;;;4.00;;
57341;SDS011;43175;51.002;18.316;2023-08-01T09:00:35;11.10;;;3.90;;
57341;SDS011;43175;51.002;18.316;2023-08-01T09:03:01;12.50;;;4.70;;
57341;SDS011;43175;51.002;18.316;2023-08-01T09:05:27;9.80;;;4.00;;
57341;SDS011;43175;51.002;18.316;2023-08-01T09:07:56;9.80;;;4.00;;
57341;SDS011;43175;51.002;18.316;2023-08-01T09:10:23;11.00;;;4.00;;
57341;SDS011;43175;51.002;18.316;2023-08-01T09:12:48;10.80;;;4.00;;
57341;SDS011;43175;51.002;18.316;2023-08-01T09:15:14;12.10;;;4.70;;
57341;SDS011;43175;51.002;18.316;2023-08-01T09:17:50;11.10;;;4.10;;
57341;SDS011;43175;51.002;18.316;2023-08-01T09:20:16;10.70;;;4.00;;
57341;SDS011;43175;51.002;18.316;2023-08-01T09:22:45;9.80;;;3.70;;
57341;SDS011;43175;51.002;18.316;2023-08-01T09:25:14;9.80;;;3.90;;
57341;SDS011;43175;51.002;18.316;2023-08-01T09:27:39;12.00;;;4.10;;
57341;SDS011;43175;51.002;18.316;2023-08-01T09:30:09;10.50;;;4.10;;
57341;SDS011;43175;51.002;18.316;2023-08-01T09:32:38;10.00;;;4.00;;
57341;SDS011;43175;51.002;18.316;2023-08-01T09:35:05;10.60;;;4.10;;
57341;SDS011;43175;51.002;18.316;2023-08-01T09:37:38;10.70;;;3.80;;
57341;SDS011;43175;51.002;18.316;2023-08-01T09:40:05;10.90;;;3.90;;
57341;SDS011;43175;51.002;18.316;2023-08-01T09:42:42;9.50;;;3.90;;
57341;SDS011;43175;51.002;18.316;2023-08-01T09:47:41;10.00;;;3.70;;
57341;SDS011;43175;51.002;18.316;2023-08-01T09:50:08;10.10;;;4.10;;
57341;SDS011;43175;51.002;18.316;2023-08-01T09:52:35;10.20;;;3.90;;
57341;SDS011;43175;51.002;18.316;2023-08-01T09:55:01;10.20;;;3.80;;
57341;SDS011;43175;51.002;18.316;2023-08-01T09:57:28;10.40;;;3.50;;
57341;SDS011;43175;51.002;18.316;2023-08-01T09:59:58;10.50;;;4.10;;
57341;SDS011;43175;51.002;18.316;2023-08-01T10:02:25;10.00;;;3.80;;
57341;SDS011;43175;51.002;18.316;2023-08-01T10:04:53;15.50;;;4.00;;
57341;SDS011;43175;51.002;18.316;2023-08-01T10:07:26;10.40;;;4.10;;
57341;SDS011;43175;51.002;18.316;2023-08-01T10:09:57;9.70;;;4.10;;
57341;SDS011;43175;51.002;18.316;2023-08-01T10:12:25;9.90;;;3.70;;
57341;SDS011;43175;51.002;18.316;2023-08-01T10:14:53;11.50;;;4.10;;
57341;SDS011;43175;51.002;18.316;2023-08-01T10:17:21;10.90;;;4.30;;
57341;SDS011;43175;51.002;18.316;2023-08-01T10:19:48;10.90;;;4.30;;
57341;SDS011;43175;51.002;18.316;2023-08-01T10:22:15;10.90;;;4.30;;
57341;SDS011;43175;51.002;18.316;2023-08-01T10:24:42;10.00;;;4.40;;
57341;SDS011;43175;51.002;18.316;2023-08-01T10:27:10;10.00;;;4.00;;
57341;SDS011;43175;51.002;18.316;2023-08-01T10:29:39;11.20;;;4.20;;
57341;SDS011;43175;51.002;18.316;2023-08-01T10:32:09;10.20;;;4.30;;
57341;SDS011;43175;51.002;18.316;2023-08-01T10:34:35;10.70;;;4.30;;
57341;SDS011;43175;51.002;18.316;2023-08-01T10:37:01;10.20;;;4.30;;
57341;SDS011;43175;51.002;18.316;2023-08-01T10:39:28;10.50;;;4.10;;
57341;SDS011;43175;51.002;18.316;2023-08-01T10:42:01;10.20;;;4.30;;
57341;SDS011;43175;51.002;18.316;2023-08-01T10:44:28;12.20;;;4.40;;
57341;SDS011;43175;51.002;18.316;2023-08-01T10:46:56;10.30;;;4.20;;
57341;SDS011;43175;51.002;18.316;2023-08-01T10:54:44;11.20;;;4.30;;
57341;SDS011;43175;51.002;18.316;2023-08-01T10:57:15;12.80;;;4.20;;
57341;SDS011;43175;51.002;18.316;2023-08-01T10:59:46;12.30;;;4.60;;
57341;SDS011;43175;51.002;18.316;2023-08-01T11:02:19;12.80;;;4.30;;
57341;SDS011;43175;51.002;18.316;2023-08-01T11:04:54;10.80;;;4.50;;
57341;SDS011;43175;51.002;18.316;2023-08-01T11:07:23;10.40;;;4.60;;
57341;SDS011;43175;51.002;18.316;2023-08-01T11:09:49;11.90;;;4.60;;
57341;SDS011;43175;51.002;18.316;2023-08-01T11:12:15;11.00;;;4.80;;
57341;SDS011;43175;51.002;18.316;2023-08-01T11:14:40;13.30;;;4.60;;
57341;SDS011;43175;51.002;18.316;2023-08-01T11:17:06;11.10;;;4.60;;
57341;SDS011;43175;51.002;18.316;2023-08-01T11:19:32;11.10;;;4.40;;
57341;SDS011;43175;51.002;18.316;2023-08-01T11:21:57;12.50;;;4.40;;
57341;SDS011;43175;51.002;18.316;2023-08-01T11:24:26;10.80;;;4.40;;
57341;SDS011;43175;51.002;18.316;2023-08-01T11:26:52;11.10;;;4.10;;
57341;SDS011;43175;51.002;18.316;2023-08-01T11:29:19;10.30;;;4.00;;
57341;SDS011;43175;51.002;18.316;2023-08-01T11:31:55;9.60;;;4.20;;
57341;SDS011;43175;51.002;18.316;2023-08-01T11:34:22;11.60;;;4.20;;
57341;SDS011;43175;51.002;18.316;2023-08-01T11:36:48;10.20;;;4.30;;
57341;SDS011;43175;51.002;18.316;2023-08-01T11:39:14;10.90;;;4.20;;
57341;SDS011;43175;51.002;18.316;2023-08-01T11:41:40;11.30;;;4.60;;
57341;SDS011;43175;51.002;18.316;2023-08-01T11:44:07;11.50;;;4.90;;
57341;SDS011;43175;51.002;18.316;2023-08-01T11:46:37;13.00;;;4.60;;
57341;SDS011;43175;51.002;18.316;2023-08-01T11:49:04;10.90;;;4.60;;
57341;SDS011;43175;51.002;18.316;2023-08-01T11:51:38;10.70;;;4.60;;
57341;SDS011;43175;51.002;18.316;2023-08-01T11:54:04;14.00;;;4.70;;
57341;SDS011;43175;51.002;18.316;2023-08-01T11:56:30;12.30;;;4.30;;
57341;SDS011;43175;51.002;18.316;2023-08-01T11:58:57;10.40;;;4.20;;
57341;SDS011;43175;51.002;18.316;2023-08-01T12:01:24;10.30;;;4.60;;
57341;SDS011;43175;51.002;18.316;2023-08-01T12:03:51;10.70;;;4.30;;
57341;SDS011;43175;51.002;18.316;2023-08-01T12:06:19;9.80;;;4.20;;
57341;SDS011;43175;51.002;18.316;2023-08-01T12:08:47;11.90;;;4.40;;
57341;SDS011;43175;51.002;18.316;2023-08-01T12:11:20;11.60;;;4.80;;
57341;SDS011;43175;51.002;18.316;2023-08-01T12:13:47;10.90;;;4.60;;
57341;SDS011;43175;51.002;18.316;2023-08-01T12:16:13;12.00;;;4.80;;
57341;SDS011;43175;51.002;18.316;2023-08-01T12:18:45;11.30;;;4.80;;
57341;SDS011;43175;51.002;18.316;2023-08-01T12:21:12;12.20;;;4.70;;
57341;SDS011;43175;51.002;18.316;2023-08-01T12:23:38;10.60;;;4.60;;
57341;SDS011;43175;51.002;18.316;2023-08-01T12:26:06;11.60;;;4.30;;
57341;SDS011;43175;51.002;18.316;2023-08-01T12:28:32;12.20;;;4.60;;
57341;SDS011;43175;51.002;18.316;2023-08-01T12:30:57;11.80;;;4.60;;
57341;SDS011;43175;51.002;18.316;2023-08-01T12:33:24;12.30;;;4.30;;
57341;SDS011;43175;51.002;18.316;2023-08-01T12:35:50;11.10;;;4.60;;
57341;SDS011;43175;51.002;18.316;2023-08-01T12:38:16;10.50;;;4.40;;
57341;SDS011;43175;51.002;18.316;2023-08-01T12:40:41;11.00;;;4.30;;
57341;SDS011;43175;51.002;18.316;2023-08-01T12:43:07;10.70;;;4.40;;
57341;SDS011;43175;51.002;18.316;2023-08-01T12:45:33;11.60;;;4.30;;
57341;SDS011;43175;51.002;18.316;2023-08-01T12:47:58;12.20;;;4.50;;
57341;SDS011;43175;51.002;18.316;2023-08-01T12:50:24;12.30;;;4.20;;
57341;SDS011;43175;51.002;18.316;2023-08-01T12:52:50;10.80;;;4.00;;
57341;SDS011;43175;51.002;18.316;2023-08-01T12:55:18;10.40;;;3.90;;
57341;SDS011;43175;51.002;18.316;2023-08-01T12:57:44;10.80;;;4.30;;
57341;SDS011;43175;51.002;18.316;2023-08-01T13:00:12;10.20;;;4.00;;
57341;SDS011;43175;51.002;18.316;2023-08-01T13:02:38;10.90;;;4.40;;
57341;SDS011;43175;51.002;18.316;2023-08-01T13:05:04;11.20;;;4.00;;
57341;SDS011;43175;51.002;18.316;2023-08-01T13:07:30;11.10;;;4.30;;
57341;SDS011;43175;51.002;18.316;2023-08-01T13:10:00;10.50;;;4.00;;
57341;SDS011;43175;51.002;18.316;2023-08-01T13:12:26;13.60;;;4.30;;
57341;SDS011;43175;51.002;18.316;2023-08-01T13:14:51;10.90;;;4.10;;
57341;SDS011;43175;51.002;18.316;2023-08-01T13:17:17;10.20;;;3.90;;
57341;SDS011;43175;51.002;18.316;2023-08-01T13:19:43;11.30;;;4.20;;
57341;SDS011;43175;51.002;18.316;2023-08-01T13:22:09;10.00;;;3.80;;
57341;SDS011;43175;51.002;18.316;2023-08-01T13:24:34;9.80;;;4.00;;
57341;SDS011;43175;51.002;18.316;2023-08-01T13:27:00;9.90;;;4.00;;
57341;SDS011;43175;51.002;18.316;2023-08-01T13:29:26;11.30;;;4.00;;
57341;SDS011;43175;51.002;18.316;2023-08-01T13:31:51;9.80;;;3.70;;
57341;SDS011;43175;51.002;18.316;2023-08-01T13:34:17;9.70;;;3.90;;
57341;SDS011;43175;51.002;18.316;2023-08-01T13:36:43;10.90;;;4.00;;
57341;SDS011;43175;51.002;18.316;2023-08-01T13:39:11;10.00;;;3.90;;
57341;SDS011;43175;51.002;18.316;2023-08-01T13:41:37;9.70;;;4.00;;
57341;SDS011;43175;51.002;18.316;2023-08-01T13:44:02;11.00;;;3.90;;
57341;SDS011;43175;51.002;18.316;2023-08-01T13:46:28;9.10;;;3.60;;
57341;SDS011;43175;51.002;18.316;2023-08-01T13:48:54;10.00;;;3.70;;
57341;SDS011;43175;51.002;18.316;2023-08-01T13:51:23;9.90;;;4.00;;
57341;SDS011;43175;51.002;18.316;2023-08-01T13:53:48;10.00;;;3.50;;
57341;SDS011;43175;51.002;18.316;2023-08-01T13:56:14;9.80;;;3.60;;
57341;SDS011;43175;51.002;18.316;2023-08-01T13:58:39;9.30;;;3.50;;
57341;SDS011;43175;51.002;18.316;2023-08-01T14:01:05;9.50;;;3.50;;
57341;SDS011;43175;51.002;18.316;2023-08-01T14:03:36;9.80;;;3.70;;
57341;SDS011;43175;51.002;18.316;2023-08-01T14:06:03;10.40;;;3.90;;
57341;SDS011;43175;51.002;18.316;2023-08-01T14:08:32;10.70;;;3.50;;
57341;SDS011;43175;51.002;18.316;2023-08-01T14:10:58;10.70;;;3.70;;
57341;SDS011;43175;51.002;18.316;2023-08-01T14:13:24;10.20;;;3.50;;
57341;SDS011;43175;51.002;18.316;2023-08-01T14:15:49;9.60;;;3.70;;
57341;SDS011;43175;51.002;18.316;2023-08-01T14:18:15;10.00;;;3.20;;
57341;SDS011;43175;51.002;18.316;2023-08-01T14:20:40;9.10;;;3.40;;
57341;SDS011;43175;51.002;18.316;2023-08-01T14:23:06;12.30;;;3.40;;
57341;SDS011;43175;51.002;18.316;2023-08-01T14:25:31;9.70;;;3.40;;
57341;SDS011;43175;51.002;18.316;2023-08-01T14:27:57;10.50;;;3.40;;
57341;SDS011;43175;51.002;18.316;2023-08-01T14:30:22;10.50;;;3.20;;